Time;durP1;ratioP1;P1;durP2;ratioP2;P2;SDS_P1;SDS_P2;PMS_P1;PMS_P2;Temp;Humidity;BMP_temperature;BMP_pressure;BME280_temperature;BME280_humidity;BME280_pressure;Samples;Min_cycle;Max_cycle;Signal;HPM_P1;HPM_P2
2023/12/13 00:01:29;;;;;;;10.10;2.42;;;8.30;99.90;;;;;;5005396;28;20042;-78
2023/12/13 00:03:55;;;;;;;8.10;3.03;;;8.30;99.90;;;;;;5010728;28;20538;-79
2023/12/13 00:06:20;;;;;;;11.05;4.18;;;8.30;99.90;;;;;;4998583;28;20393;-73
2023/12/13 00:08:46;;;;;;;11.35;3.25;;;8.40;99.90;;;;;;5003569;28;20046;-79
2023/12/13 00:11:12;;;;;;;7.30;3.13;;;8.40;99.90;;;;;;5012400;28;20382;-79
2023/12/13 00:13:37;;;;;;;12.10;3.53;;;8.40;99.90;;;;;;5004739;28;20034;-79
2023/12/13 00:16:03;;;;;;;8.30;3.47;;;8.40;99.90;;;;;;5003505;28;20569;-79
2023/12/13 00:18:29;;;;;;;9.55;3.38;;;8.40;99.90;;;;;;4998966;28;20651;-75
2023/12/13 00:20:55;;;;;;;13.02;3.50;;;8.40;99.90;;;;;;4997474;28;20042;-78
2023/12/13 00:23:21;;;;;;;10.00;4.18;;;8.40;99.90;;;;;;4996482;28;20101;-78
2023/12/13 00:25:46;;;;;;;13.30;4.45;;;8.40;99.90;;;;;;4991889;28;20042;-79
2023/12/13 00:28:12;;;;;;;10.40;4.20;;;8.40;99.90;;;;;;4998230;28;20069;-79
2023/12/13 00:30:37;;;;;;;9.40;3.80;;;8.40;99.90;;;;;;4999024;28;20056;-79
2023/12/13 00:33:03;;;;;;;8.88;3.85;;;8.40;99.90;;;;;;5013027;28;20030;-79
2023/12/13 00:35:28;;;;;;;9.00;3.58;;;8.40;99.90;;;;;;5009430;28;20042;-79
2023/12/13 00:37:54;;;;;;;11.07;3.78;;;8.40;99.90;;;;;;4997888;28;20551;-77
2023/12/13 00:40:22;;;;;;;6.38;3.10;;;8.40;99.90;;;;;;4993649;28;20173;-79
2023/12/13 00:42:51;;;;;;;7.90;3.95;;;8.40;99.90;;;;;;4991983;28;20483;-79
2023/12/13 00:45:16;;;;;;;13.07;3.97;;;8.40;99.90;;;;;;4998417;28;20045;-77
2023/12/13 00:47:43;;;;;;;8.98;3.90;;;8.40;99.90;;;;;;5028284;28;20034;-77
2023/12/13 00:50:08;;;;;;;10.50;3.67;;;8.40;99.90;;;;;;5026529;28;20033;-78
2023/12/13 00:52:35;;;;;;;11.23;4.30;;;8.50;99.90;;;;;;5000854;28;20046;-80
2023/12/13 00:55:01;;;;;;;8.52;3.53;;;8.50;99.90;;;;;;4997685;28;20042;-78
2023/12/13 00:57:27;;;;;;;6.57;3.10;;;8.50;99.90;;;;;;5015390;28;20029;-79
2023/12/13 00:59:53;;;;;;;9.60;3.67;;;8.50;99.90;;;;;;5014585;28;20061;-79
2023/12/13 01:02:18;;;;;;;5.68;3.00;;;8.50;99.90;;;;;;5009608;28;20041;-79
2023/12/13 01:04:44;;;;;;;9.95;3.53;;;8.40;99.90;;;;;;5003994;28;20034;-78
2023/12/13 01:07:10;;;;;;;7.38;2.90;;;8.40;99.90;;;;;;5003389;28;20402;-78
2023/12/13 01:09:36;;;;;;;9.40;3.80;;;8.40;99.90;;;;;;5004142;28;20103;-76
2023/12/13 01:12:02;;;;;;;7.25;3.03;;;8.50;99.90;;;;;;5010822;28;20942;-78
2023/12/13 01:14:28;;;;;;;9.10;3.70;;;8.40;99.90;;;;;;5013617;28;20042;-79
2023/12/13 01:16:53;;;;;;;6.70;2.85;;;8.40;99.90;;;;;;5000641;28;20040;-81
2023/12/13 01:19:19;;;;;;;8.77;3.08;;;8.50;99.90;;;;;;5000371;28;20482;-80
2023/12/13 01:21:44;;;;;;;7.22;3.20;;;8.50;99.90;;;;;;5008562;28;20027;-77
2023/12/13 01:24:10;;;;;;;13.70;3.75;;;8.40;99.90;;;;;;4998344;28;20490;-79
2023/12/13 01:26:35;;;;;;;10.85;3.65;;;8.40;99.90;;;;;;4994251;28;20038;-78
2023/12/13 01:29:01;;;;;;;13.77;4.30;;;8.40;99.90;;;;;;5007897;28;20042;-78
2023/12/13 01:31:27;;;;;;;14.30;5.25;;;8.40;99.90;;;;;;5003937;28;20519;-78
2023/12/13 01:33:52;;;;;;;10.25;3.42;;;8.40;99.90;;;;;;5011033;28;20189;-78
2023/12/13 01:36:18;;;;;;;7.47;3.17;;;8.40;99.90;;;;;;5005664;28;20096;-78
2023/12/13 01:38:44;;;;;;;8.25;2.97;;;8.40;99.90;;;;;;5007486;28;20425;-77
2023/12/13 01:41:09;;;;;;;10.10;3.70;;;8.40;99.90;;;;;;4989753;28;20042;-77
2023/12/13 01:43:35;;;;;;;8.43;3.38;;;8.40;99.90;;;;;;4992606;28;20038;-77
2023/12/13 01:46:00;;;;;;;9.23;3.28;;;8.40;99.90;;;;;;5004840;28;20379;-78
2023/12/13 01:48:27;;;;;;;7.97;3.20;;;8.40;99.90;;;;;;4997486;28;20030;-79
2023/12/13 01:50:54;;;;;;;9.40;2.50;;;8.40;99.90;;;;;;4997710;28;20034;-77
2023/12/13 01:53:21;;;;;;;6.72;2.60;;;8.50;99.90;;;;;;5005834;28;20041;-79
2023/12/13 01:55:48;;;;;;;8.60;2.88;;;8.40;99.90;;;;;;5012855;28;20041;-79
2023/12/13 01:58:15;;;;;;;5.00;2.22;;;8.40;99.90;;;;;;5012413;28;20041;-79
2023/12/13 02:00:42;;;;;;;6.85;2.67;;;8.40;99.90;;;;;;4993010;28;20046;-79
2023/12/13 02:03:11;;;;;;;6.95;2.83;;;8.40;99.90;;;;;;5002951;28;20056;-78
2023/12/13 02:05:38;;;;;;;9.63;3.47;;;8.40;99.90;;;;;;5010344;28;20038;-77
2023/12/13 02:08:04;;;;;;;7.32;2.97;;;8.40;99.90;;;;;;4997746;28;20117;-78
2023/12/13 02:10:30;;;;;;;8.88;3.20;;;8.40;99.90;;;;;;5005511;28;20037;-78
2023/12/13 02:12:55;;;;;;;7.30;2.30;;;8.40;99.90;;;;;;5010826;28;20029;-78
2023/12/13 02:15:22;;;;;;;6.15;2.42;;;8.40;99.90;;;;;;5012049;28;20086;-78
2023/12/13 02:17:51;;;;;;;7.95;3.00;;;8.40;99.90;;;;;;4999281;28;20034;-78
2023/12/13 02:20:17;;;;;;;5.83;3.00;;;8.40;99.90;;;;;;4993592;28;20030;-78
2023/12/13 02:22:43;;;;;;;9.05;2.80;;;8.40;99.90;;;;;;5001657;28;20034;-78
2023/12/13 02:25:29;;;;;;;13.02;3.97;;;8.40;99.90;;;;;;5004733;28;20030;-78
2023/12/13 02:27:54;;;;;;;9.23;2.92;;;8.40;99.90;;;;;;5008943;28;20054;-77
2023/12/13 02:30:23;;;;;;;8.13;3.50;;;8.40;99.90;;;;;;4994945;28;20054;-79
2023/12/13 02:32:49;;;;;;;7.90;2.90;;;8.40;99.90;;;;;;4999017;28;20026;-77
2023/12/13 02:35:16;;;;;;;7.32;2.90;;;8.40;99.90;;;;;;4999312;28;20029;-78
2023/12/13 02:37:45;;;;;;;10.65;3.38;;;8.40;99.90;;;;;;4997506;28;20092;-77
2023/12/13 02:40:13;;;;;;;7.22;3.08;;;8.40;99.90;;;;;;4990703;28;20034;-76
2023/12/13 02:42:38;;;;;;;5.65;2.78;;;8.40;99.90;;;;;;4998546;28;20030;-72
2023/12/13 02:45:06;;;;;;;6.80;2.90;;;8.40;99.90;;;;;;5004484;28;20030;-79
2023/12/13 02:47:31;;;;;;;5.03;2.28;;;8.40;99.90;;;;;;5004025;28;20108;-78
2023/12/13 02:49:57;;;;;;;5.10;2.72;;;8.40;99.90;;;;;;4992919;28;20041;-73
2023/12/13 02:52:22;;;;;;;5.20;2.38;;;8.40;99.90;;;;;;5027157;28;20037;-77
2023/12/13 02:54:48;;;;;;;5.38;2.90;;;8.40;99.90;;;;;;5010911;28;20030;-78
2023/12/13 02:57:13;;;;;;;6.97;2.25;;;8.40;99.90;;;;;;5022537;28;20025;-78
2023/12/13 02:59:39;;;;;;;7.22;3.10;;;8.40;99.90;;;;;;5006992;28;20054;-78
2023/12/13 03:02:05;;;;;;;5.25;2.53;;;8.40;99.90;;;;;;4999250;28;20112;-77
2023/12/13 03:04:30;;;;;;;10.18;3.00;;;8.40;99.90;;;;;;4991259;28;20117;-77
2023/12/13 03:06:56;;;;;;;9.13;3.38;;;8.40;99.90;;;;;;5001430;28;20038;-75
2023/12/13 03:09:21;;;;;;;6.18;3.22;;;8.40;99.90;;;;;;4990183;28;20034;-78
2023/12/13 03:11:47;;;;;;;12.93;3.00;;;8.50;99.90;;;;;;5004042;28;20042;-78
2023/12/13 03:14:12;;;;;;;6.53;3.00;;;8.40;99.90;;;;;;5009297;28;20046;-77
2023/12/13 03:16:38;;;;;;;9.07;3.45;;;8.40;99.90;;;;;;5010658;28;20044;-79
2023/12/13 03:19:03;;;;;;;10.13;3.25;;;8.40;99.90;;;;;;5009678;28;20030;-78
2023/12/13 03:21:29;;;;;;;9.75;3.45;;;8.50;99.90;;;;;;4991311;28;20049;-78
2023/12/13 03:23:55;;;;;;;8.48;3.97;;;8.40;99.90;;;;;;4989519;28;20398;-79
2023/12/13 03:26:20;;;;;;;21.38;4.40;;;8.50;99.90;;;;;;5003889;28;20045;-77
2023/12/13 03:28:46;;;;;;;8.20;3.97;;;8.50;99.90;;;;;;4999775;28;20038;-77
2023/12/13 03:31:11;;;;;;;8.88;3.95;;;8.50;99.90;;;;;;5026708;28;20079;-77
2023/12/13 03:33:37;;;;;;;11.80;4.45;;;8.50;99.90;;;;;;5010227;28;20121;-78
2023/12/13 03:36:02;;;;;;;11.70;4.18;;;8.50;99.90;;;;;;5008661;28;20026;-77
2023/12/13 03:38:28;;;;;;;14.07;4.75;;;8.50;99.90;;;;;;5010173;28;20492;-78
2023/12/13 03:40:54;;;;;;;9.02;4.00;;;8.50;99.90;;;;;;5009268;28;20034;-79
2023/12/13 03:43:19;;;;;;;10.77;5.10;;;8.50;99.90;;;;;;5012434;28;20484;-78
2023/12/13 03:45:45;;;;;;;10.90;4.47;;;8.50;99.90;;;;;;5015659;28;20037;-78
2023/12/13 03:48:10;;;;;;;12.43;3.97;;;8.50;99.90;;;;;;5029129;28;20365;-79
2023/12/13 03:50:36;;;;;;;10.27;4.35;;;8.40;99.90;;;;;;5023487;28;20060;-76
2023/12/13 03:53:01;;;;;;;15.65;4.75;;;8.50;99.90;;;;;;5010153;28;20025;-76
2023/12/13 03:55:27;;;;;;;8.05;4.32;;;8.40;99.90;;;;;;4991348;28;20439;-75
2023/12/13 03:57:52;;;;;;;12.48;4.90;;;8.40;99.90;;;;;;4990046;28;20866;-78
2023/12/13 04:00:18;;;;;;;13.00;4.78;;;8.30;99.90;;;;;;5000740;28;20037;-79
2023/12/13 04:02:44;;;;;;;13.20;5.15;;;8.30;99.90;;;;;;5011045;28;20063;-78
2023/12/13 04:05:09;;;;;;;12.98;5.28;;;8.30;99.90;;;;;;5008007;28;20030;-78
2023/12/13 04:07:35;;;;;;;12.02;4.72;;;8.30;99.90;;;;;;5008489;28;20048;-78
2023/12/13 04:10:00;;;;;;;12.15;4.93;;;8.30;99.90;;;;;;5009716;28;20060;-77
2023/12/13 04:12:26;;;;;;;7.55;3.90;;;8.30;99.90;;;;;;5002687;28;20045;-76
2023/12/13 04:14:51;;;;;;;9.45;4.32;;;8.30;99.90;;;;;;4991904;28;20038;-79
2023/12/13 04:17:17;;;;;;;10.07;3.75;;;8.30;99.90;;;;;;4997838;28;20709;-78
2023/12/13 04:19:42;;;;;;;14.75;4.35;;;8.30;99.90;;;;;;5009143;28;20401;-76
2023/12/13 04:22:08;;;;;;;12.85;4.97;;;8.30;99.90;;;;;;5010113;28;20029;-77
2023/12/13 04:24:34;;;;;;;12.43;4.28;;;8.30;99.90;;;;;;5008215;28;20451;-77
2023/12/13 04:26:59;;;;;;;11.45;4.72;;;8.30;99.90;;;;;;5007765;28;20059;-79
2023/12/13 04:29:25;;;;;;;11.75;4.43;;;8.20;99.90;;;;;;4996622;28;20038;-77
2023/12/13 04:31:50;;;;;;;12.18;5.45;;;8.30;99.90;;;;;;5004901;28;20026;-79
2023/12/13 04:34:16;;;;;;;22.38;5.50;;;8.20;99.90;;;;;;5008808;28;20184;-79
2023/12/13 04:36:42;;;;;;;13.20;5.60;;;8.20;99.90;;;;;;4997254;28;20030;-77
2023/12/13 04:39:08;;;;;;;23.45;6.32;;;8.20;99.90;;;;;;5003270;28;20112;-77
2023/12/13 04:41:37;;;;;;;11.50;4.30;;;8.20;99.90;;;;;;5008874;28;20033;-79
2023/12/13 04:44:02;;;;;;;14.32;4.68;;;8.20;99.90;;;;;;4999352;28;20081;-77
2023/12/13 04:46:28;;;;;;;16.90;4.88;;;8.20;99.90;;;;;;4990739;28;20540;-77
2023/12/13 04:48:53;;;;;;;10.23;5.20;;;8.10;99.90;;;;;;4991128;28;20049;-79
2023/12/13 04:51:19;;;;;;;16.40;4.40;;;8.10;99.90;;;;;;4987099;28;20379;-77
2023/12/13 04:53:44;;;;;;;12.02;4.63;;;8.00;99.90;;;;;;5007393;28;20041;-78
2023/12/13 04:56:10;;;;;;;14.75;3.92;;;8.00;99.90;;;;;;5008009;28;20022;-78
2023/12/13 04:58:35;;;;;;;14.00;5.32;;;8.00;99.90;;;;;;5008727;28;20102;-77
2023/12/13 05:01:01;;;;;;;10.73;5.05;;;8.00;99.90;;;;;;5008205;28;20029;-76
2023/12/13 05:03:28;;;;;;;14.55;5.18;;;8.00;99.90;;;;;;5011764;28;20056;-77
2023/12/13 05:05:53;;;;;;;16.58;4.80;;;8.00;99.90;;;;;;5026804;28;20042;-79
2023/12/13 05:08:19;;;;;;;12.82;5.57;;;8.00;99.90;;;;;;5003772;28;20041;-78
2023/12/13 05:10:44;;;;;;;12.63;4.43;;;8.00;99.90;;;;;;4996282;28;20037;-77
2023/12/13 05:13:10;;;;;;;9.27;4.60;;;8.10;99.90;;;;;;5003442;28;20084;-78
2023/12/13 05:15:35;;;;;;;11.02;4.80;;;8.10;99.90;;;;;;5005079;28;20117;-79
2023/12/13 05:18:02;;;;;;;12.82;4.72;;;8.10;99.90;;;;;;5007596;28;20069;-77
2023/12/13 05:20:27;;;;;;;14.18;4.50;;;8.10;99.90;;;;;;5007938;28;20022;-78
2023/12/13 05:22:53;;;;;;;19.65;6.07;;;8.20;99.90;;;;;;5007896;28;20192;-79
2023/12/13 05:25:20;;;;;;;13.90;4.95;;;8.10;99.90;;;;;;5008878;28;20026;-79
2023/12/13 05:27:45;;;;;;;14.73;6.50;;;8.10;99.90;;;;;;5004193;28;20410;-78
2023/12/13 05:30:11;;;;;;;12.95;5.05;;;8.10;99.90;;;;;;4994804;28;20029;-78
2023/12/13 05:32:37;;;;;;;12.55;5.32;;;8.20;99.90;;;;;;4997022;28;20038;-78
2023/12/13 05:35:03;;;;;;;16.17;5.65;;;8.20;99.90;;;;;;5002359;28;20370;-77
2023/12/13 05:37:29;;;;;;;16.25;5.07;;;8.20;99.90;;;;;;4998880;28;20125;-76
2023/12/13 05:39:54;;;;;;;11.43;4.78;;;8.20;99.90;;;;;;4988558;28;20113;-76
2023/12/13 05:42:20;;;;;;;14.30;5.00;;;8.20;99.90;;;;;;5007424;28;20042;-77
2023/12/13 05:44:48;;;;;;;13.90;5.50;;;8.10;99.90;;;;;;5001691;28;20030;-79
2023/12/13 05:47:14;;;;;;;11.70;4.75;;;8.10;99.90;;;;;;4991452;28;20407;-77
2023/12/13 05:49:40;;;;;;;13.18;5.30;;;8.10;99.90;;;;;;4993197;28;20584;-78
2023/12/13 05:52:06;;;;;;;15.18;5.10;;;8.10;99.90;;;;;;5012490;28;20033;-80
2023/12/13 05:54:33;;;;;;;9.88;5.40;;;8.10;99.90;;;;;;5012894;28;20034;-79
2023/12/13 05:56:59;;;;;;;15.80;5.15;;;8.10;99.90;;;;;;5012703;28;20129;-77
2023/12/13 05:59:24;;;;;;;15.25;5.10;;;8.10;99.90;;;;;;5018470;28;20034;-78
2023/12/13 06:01:50;;;;;;;12.95;5.63;;;8.20;99.90;;;;;;5009528;28;20029;-78
2023/12/13 06:04:15;;;;;;;19.33;5.18;;;8.10;99.90;;;;;;5014286;28;20489;-78
2023/12/13 06:06:44;;;;;;;24.48;6.45;;;8.20;99.90;;;;;;5015807;28;20115;-78
2023/12/13 06:09:10;;;;;;;10.32;4.22;;;8.20;99.90;;;;;;5014526;28;20037;-77
2023/12/13 06:11:36;;;;;;;16.98;6.60;;;8.20;99.90;;;;;;5021533;28;20076;-78
2023/12/13 06:14:02;;;;;;;17.58;6.18;;;8.20;99.90;;;;;;5019097;28;20071;-77
2023/12/13 06:16:28;;;;;;;14.13;5.35;;;8.30;99.90;;;;;;5026112;28;20034;-77
2023/12/13 06:18:53;;;;;;;12.52;4.47;;;8.20;99.90;;;;;;5018577;28;20091;-78
2023/12/13 06:21:19;;;;;;;13.27;5.03;;;8.30;99.90;;;;;;5024927;28;20049;-78
2023/12/13 06:23:44;;;;;;;11.40;4.78;;;8.30;99.90;;;;;;5015652;28;20040;-78
2023/12/13 06:26:10;;;;;;;12.00;4.97;;;8.30;99.90;;;;;;5013091;28;20120;-79
2023/12/13 06:28:35;;;;;;;14.70;4.80;;;8.30;99.90;;;;;;5006682;28;20147;-77
2023/12/13 06:31:01;;;;;;;18.85;5.57;;;8.30;99.90;;;;;;5015436;28;20025;-78
2023/12/13 06:33:27;;;;;;;20.15;6.22;;;8.40;99.90;;;;;;5010514;28;20055;-77
2023/12/13 06:35:53;;;;;;;14.75;4.65;;;8.40;99.90;;;;;;5016280;28;20033;-80
2023/12/13 06:38:19;;;;;;;15.30;4.53;;;8.40;99.90;;;;;;5011711;28;20108;-77
2023/12/13 06:40:44;;;;;;;23.00;7.30;;;8.40;99.90;;;;;;5012042;28;20215;-78
2023/12/13 06:43:10;;;;;;;16.13;5.65;;;8.40;99.90;;;;;;5009832;28;20057;-76
2023/12/13 06:45:35;;;;;;;11.43;4.60;;;8.40;99.90;;;;;;5016755;28;20049;-77
2023/12/13 06:48:01;;;;;;;15.13;4.97;;;8.40;99.90;;;;;;5016984;28;20632;-79
2023/12/13 06:50:27;;;;;;;16.85;4.85;;;8.40;99.90;;;;;;5020742;28;20045;-78
2023/12/13 06:52:54;;;;;;;11.93;4.35;;;8.40;99.90;;;;;;5015351;28;20458;-78
2023/12/13 06:55:19;;;;;;;23.25;5.55;;;8.40;99.90;;;;;;5019498;28;20394;-76
2023/12/13 06:57:45;;;;;;;12.73;4.78;;;8.40;99.90;;;;;;5018866;28;20023;-78
2023/12/13 07:00:11;;;;;;;11.73;4.40;;;8.40;99.90;;;;;;5023640;28;20044;-77
2023/12/13 07:02:37;;;;;;;18.05;5.43;;;8.40;99.90;;;;;;5016437;28;20029;-79
2023/12/13 07:05:03;;;;;;;12.77;4.38;;;8.50;99.90;;;;;;5017189;28;20047;-76
2023/12/13 07:07:28;;;;;;;15.18;4.72;;;8.50;99.90;;;;;;5018304;28;20143;-79
2023/12/13 07:09:54;;;;;;;14.48;4.28;;;8.50;99.90;;;;;;5016746;28;20045;-78
2023/12/13 07:12:20;;;;;;;16.10;5.20;;;8.50;99.90;;;;;;5018058;28;20025;-77
2023/12/13 07:14:45;;;;;;;16.55;4.82;;;8.50;99.90;;;;;;5019643;28;20465;-78
2023/12/13 07:17:11;;;;;;;13.43;4.35;;;8.50;99.90;;;;;;5022779;28;20056;-77
2023/12/13 07:19:37;;;;;;;10.88;4.47;;;8.50;99.90;;;;;;5032222;28;20482;-77
2023/12/13 07:22:02;;;;;;;15.27;4.10;;;8.50;99.90;;;;;;5017432;28;20048;-76
2023/12/13 07:24:28;;;;;;;13.73;4.75;;;8.50;99.90;;;;;;5021692;28;20029;-78
2023/12/13 07:26:54;;;;;;;16.13;4.50;;;8.50;99.90;;;;;;5013943;28;20033;-77
2023/12/13 07:29:19;;;;;;;24.23;5.30;;;8.50;99.90;;;;;;5015994;28;20122;-80
2023/12/13 07:31:45;;;;;;;18.45;5.63;;;8.50;99.90;;;;;;5018500;28;20499;-78
2023/12/13 07:34:11;;;;;;;15.27;4.82;;;8.50;99.90;;;;;;5016185;28;20041;-78
2023/12/13 07:36:37;;;;;;;16.38;4.60;;;8.50;99.90;;;;;;5011611;28;20046;-80
2023/12/13 07:39:03;;;;;;;21.60;5.32;;;8.50;99.90;;;;;;5012435;28;20052;-77
2023/12/13 07:41:29;;;;;;;18.60;4.35;;;8.50;99.90;;;;;;5020209;28;20386;-77
2023/12/13 07:43:54;;;;;;;12.82;4.78;;;8.50;99.90;;;;;;5013011;28;20041;-76
2023/12/13 07:46:20;;;;;;;22.45;5.72;;;8.60;99.90;;;;;;5016838;28;20606;-78
2023/12/13 07:48:46;;;;;;;12.48;5.00;;;8.60;99.90;;;;;;5021020;28;20041;-78
2023/12/13 07:51:12;;;;;;;17.00;6.05;;;8.60;99.90;;;;;;5013640;28;20041;-78
2023/12/13 07:53:38;;;;;;;14.00;5.00;;;8.60;99.90;;;;;;5012047;28;20046;-78
2023/12/13 07:56:06;;;;;;;18.15;4.32;;;8.60;99.90;;;;;;5009813;28;20565;-78
2023/12/13 07:58:31;;;;;;;16.25;5.13;;;8.60;99.90;;;;;;5006183;28;20100;-75
2023/12/13 08:00:57;;;;;;;19.98;5.03;;;8.60;99.90;;;;;;5014886;28;20037;-79
2023/12/13 08:03:23;;;;;;;19.92;6.50;;;8.60;99.90;;;;;;5014517;28;21397;-78
2023/12/13 08:05:48;;;;;;;24.52;5.90;;;8.60;99.90;;;;;;5014066;28;20493;-78
2023/12/13 08:08:15;;;;;;;15.95;5.05;;;8.60;99.90;;;;;;5013132;28;20037;-77
2023/12/13 08:10:43;;;;;;;16.98;5.50;;;8.60;99.90;;;;;;5014023;28;20504;-77
2023/12/13 08:13:09;;;;;;;16.38;5.28;;;8.60;99.90;;;;;;5014201;28;20026;-77
2023/12/13 08:15:35;;;;;;;16.52;5.28;;;8.60;99.90;;;;;;5022747;28;20088;-77
2023/12/13 08:18:01;;;;;;;15.43;5.07;;;8.60;99.90;;;;;;5012321;28;20113;-76
2023/12/13 08:20:29;;;;;;;15.07;4.57;;;8.60;99.90;;;;;;5012486;28;20112;-75
2023/12/13 08:22:56;;;;;;;13.07;4.93;;;8.60;99.90;;;;;;5011096;28;20041;-77
2023/12/13 08:25:21;;;;;;;16.70;5.10;;;8.60;99.90;;;;;;5019744;28;20159;-77
2023/12/13 08:27:47;;;;;;;21.27;4.90;;;8.70;99.90;;;;;;5012555;28;20101;-77
2023/12/13 08:30:12;;;;;;;18.90;5.78;;;8.70;99.90;;;;;;5011673;28;20119;-76
2023/12/13 08:32:38;;;;;;;25.88;5.68;;;8.70;99.90;;;;;;5017405;28;20485;-77
2023/12/13 08:35:05;;;;;;;16.13;5.63;;;8.70;99.90;;;;;;5021746;28;20040;-76
2023/12/13 08:37:30;;;;;;;18.77;5.88;;;8.70;99.90;;;;;;5016979;28;20574;-78
2023/12/13 08:39:56;;;;;;;14.27;4.82;;;8.70;99.90;;;;;;5013433;28;20504;-78
2023/12/13 08:42:21;;;;;;;16.25;5.47;;;8.70;99.90;;;;;;5017203;28;20136;-77
2023/12/13 08:44:47;;;;;;;16.08;5.82;;;8.70;99.90;;;;;;5011348;28;20084;-77
2023/12/13 08:47:13;;;;;;;17.52;5.60;;;8.70;99.90;;;;;;5022429;28;20049;-78
2023/12/13 08:49:39;;;;;;;21.13;5.57;;;8.70;99.90;;;;;;5015762;28;20042;-76
2023/12/13 08:52:05;;;;;;;17.55;4.63;;;8.70;99.90;;;;;;5008524;28;20125;-75
2023/12/13 08:54:32;;;;;;;21.42;5.38;;;8.70;99.90;;;;;;5013007;28;20049;-76
2023/12/13 08:56:57;;;;;;;19.83;4.88;;;8.80;99.90;;;;;;5017262;28;20046;-76
2023/12/13 08:59:23;;;;;;;16.50;5.20;;;8.80;99.90;;;;;;5020962;28;20183;-77
2023/12/13 09:01:49;;;;;;;14.45;4.80;;;8.80;99.90;;;;;;5013650;28;20040;-78
2023/12/13 09:04:14;;;;;;;17.17;5.88;;;8.80;99.90;;;;;;5009946;28;20026;-78
2023/12/13 09:06:40;;;;;;;14.50;4.72;;;8.90;99.90;;;;;;5011101;28;20109;-77
2023/12/13 09:09:09;;;;;;;18.00;5.50;;;8.90;99.90;;;;;;5012188;28;20033;-77
2023/12/13 09:11:35;;;;;;;18.05;4.65;;;9.00;99.90;;;;;;5007678;28;20026;-79
2023/12/13 09:14:00;;;;;;;19.88;6.70;;;9.00;99.90;;;;;;5005645;28;20096;-77
2023/12/13 09:16:26;;;;;;;17.63;5.32;;;9.10;99.90;;;;;;5016525;28;20046;-77
2023/12/13 09:18:51;;;;;;;14.65;4.70;;;9.10;99.90;;;;;;5015150;28;20115;-78
2023/12/13 09:21:17;;;;;;;16.75;6.32;;;9.20;99.90;;;;;;5026501;28;20041;-76
2023/12/13 09:23:43;;;;;;;13.52;4.75;;;9.30;99.90;;;;;;5015317;28;20436;-78
2023/12/13 09:26:12;;;;;;;20.33;5.82;;;9.40;99.90;;;;;;5010939;28;20485;-76
2023/12/13 09:28:37;;;;;;;12.25;4.72;;;9.40;99.90;;;;;;5013056;28;20038;-78
2023/12/13 09:31:04;;;;;;;12.52;4.82;;;9.50;99.90;;;;;;5012110;28;20040;-77
2023/12/13 09:33:30;;;;;;;15.07;5.10;;;9.50;99.90;;;;;;5007110;28;20025;-78
2023/12/13 09:35:56;;;;;;;9.75;4.38;;;9.50;99.90;;;;;;5010470;28;20037;-77
2023/12/13 09:38:21;;;;;;;12.40;4.30;;;9.50;99.90;;;;;;5012514;28;20026;-76
2023/12/13 09:40:48;;;;;;;15.90;5.10;;;9.50;99.90;;;;;;5010482;28;20158;-75
2023/12/13 09:43:14;;;;;;;14.05;5.38;;;9.50;99.90;;;;;;5016472;28;20428;-76
2023/12/13 09:45:41;;;;;;;15.20;6.25;;;9.40;99.90;;;;;;5023812;28;20036;-79
2023/12/13 09:48:07;;;;;;;12.15;5.32;;;9.40;99.90;;;;;;5011806;28;20045;-77
2023/12/13 09:50:34;;;;;;;17.30;5.95;;;9.40;99.90;;;;;;5004009;28;20060;-75
2023/12/13 09:53:02;;;;;;;20.80;6.97;;;9.40;99.90;;;;;;5008260;28;20556;-77
2023/12/13 09:55:29;;;;;;;16.92;6.57;;;9.40;99.90;;;;;;5000640;28;20036;-78
2023/12/13 09:57:55;;;;;;;18.55;5.95;;;9.40;99.90;;;;;;5018540;28;20034;-77
2023/12/13 10:00:21;;;;;;;17.08;5.78;;;9.40;99.90;;;;;;5019333;28;20503;-76
2023/12/13 10:02:49;;;;;;;23.98;6.57;;;9.40;99.90;;;;;;5015318;28;20045;-77
2023/12/13 10:05:17;;;;;;;22.83;7.18;;;9.40;99.90;;;;;;5004360;28;20026;-76
2023/12/13 10:07:43;;;;;;;16.50;5.88;;;9.40;99.90;;;;;;5018613;28;20041;-76
2023/12/13 10:10:09;;;;;;;18.38;7.00;;;9.40;99.90;;;;;;5013457;28;20022;-77
2023/12/13 10:12:35;;;;;;;13.82;5.97;;;9.40;99.90;;;;;;5015763;28;20095;-76
2023/12/13 10:15:11;;;;;;;27.90;6.03;;;9.40;99.90;;;;;;5014401;28;20044;-77
2023/12/13 10:17:38;;;;;;;14.40;4.93;;;9.40;99.90;;;;;;5012410;28;20112;-76
2023/12/13 10:20:06;;;;;;;17.13;5.55;;;9.40;99.90;;;;;;5014581;28;20025;-77
2023/12/13 10:22:32;;;;;;;20.73;7.03;;;9.50;99.90;;;;;;5001974;28;20520;-77
2023/12/13 10:24:58;;;;;;;29.20;5.93;;;9.50;99.90;;;;;;5017923;28;20497;-76
2023/12/13 10:27:24;;;;;;;17.70;6.10;;;9.50;99.90;;;;;;5005028;28;20087;-77
2023/12/13 10:29:51;;;;;;;14.02;6.05;;;9.50;99.90;;;;;;5014566;28;20045;-78
2023/12/13 10:32:18;;;;;;;14.95;5.00;;;9.40;99.90;;;;;;5011804;28;20041;-77
2023/12/13 10:34:44;;;;;;;21.15;6.72;;;9.40;99.90;;;;;;5025932;28;20046;-76
2023/12/13 10:37:12;;;;;;;14.85;5.25;;;9.50;99.90;;;;;;5010260;28;20393;-77
2023/12/13 10:39:44;;;;;;;14.80;5.43;;;9.40;99.90;;;;;;5005818;28;20585;-77
2023/12/13 10:42:12;;;;;;;13.93;5.50;;;9.50;99.90;;;;;;5002916;28;20026;-76
2023/12/13 10:44:39;;;;;;;13.27;5.03;;;9.50;99.90;;;;;;5021137;28;20167;-76
2023/12/13 10:47:08;;;;;;;18.08;5.78;;;9.50;99.90;;;;;;5009461;28;20042;-76
2023/12/13 10:49:35;;;;;;;16.10;5.50;;;9.50;99.90;;;;;;5006752;28;20092;-77
2023/12/13 10:52:04;;;;;;;14.30;5.72;;;9.50;99.90;;;;;;5018775;28;20030;-79
2023/12/13 10:54:30;;;;;;;15.40;5.80;;;9.50;99.90;;;;;;5008284;28;20119;-78
2023/12/13 10:56:56;;;;;;;17.05;5.40;;;9.50;99.90;;;;;;5010478;28;20408;-76
2023/12/13 10:59:25;;;;;;;13.43;5.43;;;9.60;99.90;;;;;;5021477;28;20041;-77
2023/12/13 11:01:53;;;;;;;17.90;4.68;;;9.60;99.90;;;;;;5008717;28;20095;-75
2023/12/13 11:04:19;;;;;;;14.90;4.55;;;9.60;99.90;;;;;;5015076;28;20482;-77
2023/12/13 11:06:46;;;;;;;24.23;6.50;;;9.60;99.90;;;;;;5014470;28;20045;-76
2023/12/13 11:09:13;;;;;;;15.70;5.32;;;9.50;99.90;;;;;;5014265;28;20044;-75
2023/12/13 11:11:41;;;;;;;25.13;6.20;;;9.60;99.90;;;;;;5023633;28;20079;-76
2023/12/13 11:14:07;;;;;;;18.95;5.93;;;9.50;99.90;;;;;;5014675;28;20026;-74
2023/12/13 11:16:40;;;;;;;17.52;5.57;;;9.60;99.90;;;;;;5012279;28;20042;-75
2023/12/13 11:19:09;;;;;;;14.52;5.40;;;9.60;99.90;;;;;;5013982;28;20038;-76
2023/12/13 11:21:35;;;;;;;13.18;5.03;;;9.60;99.90;;;;;;5002047;28;20039;-76
2023/12/13 11:24:15;;;;;;;15.73;4.90;;;9.60;99.90;;;;;;5010791;28;20041;-76
2023/12/13 11:26:49;;;;;;;16.00;6.00;;;9.60;99.90;;;;;;5014651;28;20049;-78
2023/12/13 11:29:24;;;;;;;14.07;6.07;;;9.60;99.90;;;;;;5018071;28;20394;-76
2023/12/13 11:31:53;;;;;;;19.73;5.78;;;9.60;99.90;;;;;;5010703;28;20122;-77
2023/12/13 11:34:33;;;;;;;17.60;5.47;;;9.70;99.90;;;;;;5014633;28;20149;-77
2023/12/13 11:37:00;;;;;;;10.55;4.57;;;9.70;99.90;;;;;;5015979;28;20033;-76
2023/12/13 11:39:27;;;;;;;14.98;5.07;;;9.60;99.90;;;;;;5012195;28;20069;-77
2023/12/13 11:41:53;;;;;;;18.20;6.13;;;9.70;99.90;;;;;;5018655;28;20401;-77
2023/12/13 11:44:19;;;;;;;24.33;5.50;;;9.70;99.90;;;;;;5014888;28;20041;-77
2023/12/13 11:46:56;;;;;;;14.88;5.05;;;9.70;99.90;;;;;;5015073;28;20045;-76
2023/12/13 11:49:22;;;;;;;20.35;6.78;;;9.70;99.90;;;;;;5008903;28;20076;-77
2023/12/13 11:51:48;;;;;;;13.18;5.75;;;9.70;99.90;;;;;;5010777;28;20536;-77
2023/12/13 11:54:14;;;;;;;14.52;5.57;;;9.70;99.90;;;;;;5011258;28;20033;-76
2023/12/13 11:56:43;;;;;;;20.73;6.50;;;9.80;99.90;;;;;;5014287;28;20037;-75
2023/12/13 11:59:08;;;;;;;17.30;5.65;;;9.70;99.90;;;;;;5013034;28;20041;-77
2023/12/13 12:01:34;;;;;;;18.90;5.47;;;9.70;99.90;;;;;;5019992;28;20041;-77
2023/12/13 12:04:00;;;;;;;13.82;4.88;;;9.70;99.90;;;;;;5020261;28;20022;-76
2023/12/13 12:06:25;;;;;;;16.17;4.88;;;9.70;99.90;;;;;;5015026;28;20226;-77
2023/12/13 12:08:51;;;;;;;12.20;5.20;;;9.70;99.90;;;;;;5010826;28;20037;-76
2023/12/13 12:11:19;;;;;;;10.15;4.15;;;9.70;99.90;;;;;;5012171;28;20038;-76
2023/12/13 12:13:44;;;;;;;14.32;4.57;;;9.70;99.90;;;;;;5017405;28;20496;-77
2023/12/13 12:16:10;;;;;;;17.15;5.43;;;9.70;99.90;;;;;;5021172;28;20041;-76
2023/12/13 12:18:38;;;;;;;9.30;4.10;;;9.70;99.90;;;;;;5011225;28;20040;-77
2023/12/13 12:21:08;;;;;;;14.73;4.30;;;9.70;99.90;;;;;;5015048;28;20029;-79
2023/12/13 12:23:37;;;;;;;15.15;4.95;;;9.70;99.90;;;;;;5006528;28;20042;-77
2023/12/13 12:26:11;;;;;;;23.08;6.05;;;9.70;99.90;;;;;;5008708;28;20124;-76
2023/12/13 12:28:38;;;;;;;12.40;4.38;;;9.70;99.90;;;;;;5013318;28;20038;-79
2023/12/13 12:31:04;;;;;;;12.35;4.32;;;9.70;99.90;;;;;;5017850;28;20029;-78
2023/12/13 12:33:30;;;;;;;16.85;5.43;;;9.70;99.90;;;;;;5008202;28;20059;-76
2023/12/13 12:35:57;;;;;;;13.13;5.18;;;9.70;99.90;;;;;;5018370;28;20116;-78
2023/12/13 12:38:23;;;;;;;11.93;4.95;;;9.70;99.90;;;;;;5014049;28;20037;-77
2023/12/13 12:40:49;;;;;;;10.65;3.67;;;9.70;99.90;;;;;;5012284;28;20033;-77
2023/12/13 12:43:18;;;;;;;12.80;4.22;;;9.70;99.90;;;;;;5014415;28;20176;-76